sensor_id;sensor_type;location;lat;lon;timestamp;pressure;altitude;pressure_sealevel;temperature;humidity
37852;BME280;23691;52.486;4.650;2023-12-20T00:01:56;101516.53;;;9.71;70.61
37852;BME280;23691;52.486;4.650;2023-12-20T00:04:25;101523.84;;;9.69;70.81
37852;BME280;23691;52.486;4.650;2023-12-20T00:06:52;101527.09;;;9.73;70.67
37852;BME280;23691;52.486;4.650;2023-12-20T00:09:21;101533.13;;;9.65;70.48
37852;BME280;23691;52.486;4.650;2023-12-20T00:11:49;101531.59;;;9.62;70.59
37852;BME280;23691;52.486;4.650;2023-12-20T00:14:16;101532.44;;;9.63;70.63
37852;BME280;23691;52.486;4.650;2023-12-20T00:17:01;101529.19;;;9.59;70.93
37852;BME280;23691;52.486;4.650;2023-12-20T00:19:27;101524.00;;;9.58;70.92
37852;BME280;23691;52.486;4.650;2023-12-20T00:22:13;101523.28;;;9.56;71.11
37852;BME280;23691;52.486;4.650;2023-12-20T00:24:57;101522.16;;;9.58;71.08
37852;BME280;23691;52.486;4.650;2023-12-20T00:27:41;101525.38;;;9.62;71.01
37852;BME280;23691;52.486;4.650;2023-12-20T00:30:25;101533.69;;;9.59;70.98
37852;BME280;23691;52.486;4.650;2023-12-20T00:33:06;101541.56;;;9.60;70.39
37852;BME280;23691;52.486;4.650;2023-12-20T00:35:32;101534.69;;;9.58;70.70
37852;BME280;23691;52.486;4.650;2023-12-20T00:37:58;101532.13;;;9.56;71.04
37852;BME280;23691;52.486;4.650;2023-12-20T00:40:23;101524.25;;;9.64;70.91
37852;BME280;23691;52.486;4.650;2023-12-20T00:42:48;101526.66;;;9.58;71.13
37852;BME280;23691;52.486;4.650;2023-12-20T00:45:14;101522.03;;;9.60;71.33
37852;BME280;23691;52.486;4.650;2023-12-20T00:47:39;101520.03;;;9.62;71.47
37852;BME280;23691;52.486;4.650;2023-12-20T00:50:05;101519.78;;;9.65;71.33
37852;BME280;23691;52.486;4.650;2023-12-20T00:52:30;101517.09;;;9.65;71.01
37852;BME280;23691;52.486;4.650;2023-12-20T00:54:56;101517.94;;;9.65;71.31
37852;BME280;23691;52.486;4.650;2023-12-20T00:57:21;101523.41;;;9.64;71.18
37852;BME280;23691;52.486;4.650;2023-12-20T00:59:46;101531.44;;;9.64;70.98
37852;BME280;23691;52.486;4.650;2023-12-20T01:02:11;101527.94;;;9.63;71.36
37852;BME280;23691;52.486;4.650;2023-12-20T01:04:37;101528.06;;;9.62;71.36
37852;BME280;23691;52.486;4.650;2023-12-20T01:07:02;101521.88;;;9.61;71.53
37852;BME280;23691;52.486;4.650;2023-12-20T01:09:27;101528.75;;;9.64;71.64
37852;BME280;23691;52.486;4.650;2023-12-20T01:11:53;101523.72;;;9.61;71.68
37852;BME280;23691;52.486;4.650;2023-12-20T01:14:18;101519.50;;;9.58;71.53
37852;BME280;23691;52.486;4.650;2023-12-20T01:16:43;101514.84;;;9.60;72.07
37852;BME280;23691;52.486;4.650;2023-12-20T01:19:09;101527.78;;;9.65;71.99
37852;BME280;23691;52.486;4.650;2023-12-20T01:21:34;101530.59;;;9.63;72.00
37852;BME280;23691;52.486;4.650;2023-12-20T01:23:59;101530.72;;;9.62;72.08
37852;BME280;23691;52.486;4.650;2023-12-20T01:26:24;101516.25;;;9.64;72.01
37852;BME280;23691;52.486;4.650;2023-12-20T01:28:50;101514.44;;;9.65;71.76
37852;BME280;23691;52.486;4.650;2023-12-20T01:31:16;101520.31;;;9.68;71.67
37852;BME280;23691;52.486;4.650;2023-12-20T01:33:41;101511.59;;;9.66;71.71
37852;BME280;23691;52.486;4.650;2023-12-20T01:36:07;101513.84;;;9.71;71.11
37852;BME280;23691;52.486;4.650;2023-12-20T01:38:32;101507.81;;;9.69;70.99
37852;BME280;23691;52.486;4.650;2023-12-20T01:40:58;101533.13;;;9.75;71.07
37852;BME280;23691;52.486;4.650;2023-12-20T01:43:24;101516.66;;;9.70;71.08
37852;BME280;23691;52.486;4.650;2023-12-20T01:45:49;101517.94;;;9.65;71.37
37852;BME280;23691;52.486;4.650;2023-12-20T01:48:14;101510.22;;;9.62;71.47
37852;BME280;23691;52.486;4.650;2023-12-20T01:50:41;101514.44;;;9.65;71.46
37852;BME280;23691;52.486;4.650;2023-12-20T01:53:08;101513.56;;;9.64;71.66
37852;BME280;23691;52.486;4.650;2023-12-20T01:55:35;101500.91;;;9.66;71.53
37852;BME280;23691;52.486;4.650;2023-12-20T01:58:01;101507.09;;;9.67;71.89
37852;BME280;23691;52.486;4.650;2023-12-20T02:00:27;101503.16;;;9.71;71.80
37852;BME280;23691;52.486;4.650;2023-12-20T02:02:54;101511.88;;;9.73;71.90
37852;BME280;23691;52.486;4.650;2023-12-20T02:05:22;101510.75;;;9.76;71.70
37852;BME280;23691;52.486;4.650;2023-12-20T02:07:49;101513.13;;;9.79;71.18
37852;BME280;23691;52.486;4.650;2023-12-20T02:10:14;101514.38;;;9.84;70.92
37852;BME280;23691;52.486;4.650;2023-12-20T02:12:40;101506.53;;;9.73;70.75
37852;BME280;23691;52.486;4.650;2023-12-20T02:15:06;101508.78;;;9.78;70.40
37852;BME280;23691;52.486;4.650;2023-12-20T02:17:31;101495.00;;;9.73;70.29
37852;BME280;23691;52.486;4.650;2023-12-20T02:19:57;101494.84;;;9.74;70.33
37852;BME280;23691;52.486;4.650;2023-12-20T02:22:22;101492.75;;;9.68;70.49
37852;BME280;23691;52.486;4.650;2023-12-20T02:24:48;101480.38;;;9.67;70.72
37852;BME280;23691;52.486;4.650;2023-12-20T02:27:13;101471.09;;;9.71;70.55
37852;BME280;23691;52.486;4.650;2023-12-20T02:29:40;101479.69;;;9.75;70.33
37852;BME280;23691;52.486;4.650;2023-12-20T02:32:05;101495.84;;;9.73;70.74
37852;BME280;23691;52.486;4.650;2023-12-20T02:34:31;101487.53;;;9.76;70.74
37852;BME280;23691;52.486;4.650;2023-12-20T02:36:56;101471.81;;;9.73;70.97
37852;BME280;23691;52.486;4.650;2023-12-20T02:39:22;101483.31;;;9.74;70.85
37852;BME280;23691;52.486;4.650;2023-12-20T02:41:47;101482.34;;;9.75;70.46
37852;BME280;23691;52.486;4.650;2023-12-20T02:44:13;101483.19;;;9.75;70.46
37852;BME280;23691;52.486;4.650;2023-12-20T02:46:38;101475.31;;;9.74;70.37
37852;BME280;23691;52.486;4.650;2023-12-20T02:49:04;101463.78;;;9.73;70.57
37852;BME280;23691;52.486;4.650;2023-12-20T02:51:29;101457.59;;;9.73;70.50
37852;BME280;23691;52.486;4.650;2023-12-20T02:53:54;101466.59;;;9.72;70.34
37852;BME280;23691;52.486;4.650;2023-12-20T02:56:19;101452.97;;;9.75;70.29
37852;BME280;23691;52.486;4.650;2023-12-20T02:58:45;101463.09;;;9.71;70.40
37852;BME280;23691;52.486;4.650;2023-12-20T03:01:10;101467.88;;;9.67;70.54
37852;BME280;23691;52.486;4.650;2023-12-20T03:03:35;101462.53;;;9.77;70.01
37852;BME280;23691;52.486;4.650;2023-12-20T03:06:01;101457.31;;;9.76;69.59
37852;BME280;23691;52.486;4.650;2023-12-20T03:08:26;101455.38;;;9.68;69.50
37852;BME280;23691;52.486;4.650;2023-12-20T03:10:51;101455.38;;;9.68;69.65
37852;BME280;23691;52.486;4.650;2023-12-20T03:13:18;101459.47;;;9.62;70.08
37852;BME280;23691;52.486;4.650;2023-12-20T03:15:43;101461.44;;;9.60;70.36
37852;BME280;23691;52.486;4.650;2023-12-20T03:18:08;101457.75;;;9.61;70.31
37852;BME280;23691;52.486;4.650;2023-12-20T03:20:34;101471.69;;;9.65;70.73
37852;BME280;23691;52.486;4.650;2023-12-20T03:22:59;101477.03;;;9.65;70.65
37852;BME280;23691;52.486;4.650;2023-12-20T03:25:25;101474.50;;;9.63;71.00
37852;BME280;23691;52.486;4.650;2023-12-20T03:27:50;101481.78;;;9.61;71.24
37852;BME280;23691;52.486;4.650;2023-12-20T03:30:15;101470.69;;;9.66;71.33
37852;BME280;23691;52.486;4.650;2023-12-20T03:32:41;101470.25;;;9.71;70.95
37852;BME280;23691;52.486;4.650;2023-12-20T03:35:06;101470.38;;;9.69;70.94
37852;BME280;23691;52.486;4.650;2023-12-20T03:37:31;101464.09;;;9.70;70.74
37852;BME280;23691;52.486;4.650;2023-12-20T03:39:57;101467.31;;;9.64;70.94
37852;BME280;23691;52.486;4.650;2023-12-20T03:42:22;101463.50;;;9.66;70.77
37852;BME280;23691;52.486;4.650;2023-12-20T03:44:47;101464.63;;;9.64;70.83
37852;BME280;23691;52.486;4.650;2023-12-20T03:47:12;101475.03;;;9.67;70.35
37852;BME280;23691;52.486;4.650;2023-12-20T03:49:38;101458.03;;;9.68;70.05
37852;BME280;23691;52.486;4.650;2023-12-20T03:52:04;101466.88;;;9.68;70.16
37852;BME280;23691;52.486;4.650;2023-12-20T03:54:29;101467.19;;;9.65;70.34
37852;BME280;23691;52.486;4.650;2023-12-20T03:56:54;101456.31;;;9.67;70.47
37852;BME280;23691;52.486;4.650;2023-12-20T03:59:20;101449.31;;;9.66;70.41
37852;BME280;23691;52.486;4.650;2023-12-20T04:01:45;101452.13;;;9.64;70.49
37852;BME280;23691;52.486;4.650;2023-12-20T04:04:11;101447.06;;;9.61;70.71
37852;BME280;23691;52.486;4.650;2023-12-20T04:06:36;101439.06;;;9.61;70.52
37852;BME280;23691;52.486;4.650;2023-12-20T04:09:01;101444.69;;;9.58;70.59
37852;BME280;23691;52.486;4.650;2023-12-20T04:11:27;101440.19;;;9.59;70.71
37852;BME280;23691;52.486;4.650;2023-12-20T04:13:52;101454.25;;;9.61;70.37
37852;BME280;23691;52.486;4.650;2023-12-20T04:16:17;101442.72;;;9.60;70.58
37852;BME280;23691;52.486;4.650;2023-12-20T04:18:43;101443.84;;;9.58;70.63
37852;BME280;23691;52.486;4.650;2023-12-20T04:21:09;101437.50;;;9.59;70.56
37852;BME280;23691;52.486;4.650;2023-12-20T04:23:34;101438.34;;;9.59;70.86
37852;BME280;23691;52.486;4.650;2023-12-20T04:25:59;101431.19;;;9.60;71.00
37852;BME280;23691;52.486;4.650;2023-12-20T04:28:25;101426.09;;;9.66;71.00
37852;BME280;23691;52.486;4.650;2023-12-20T04:30:50;101410.78;;;9.68;70.97
37852;BME280;23691;52.486;4.650;2023-12-20T04:33:15;101411.78;;;9.67;71.08
37852;BME280;23691;52.486;4.650;2023-12-20T04:35:41;101412.59;;;9.68;70.99
37852;BME280;23691;52.486;4.650;2023-12-20T04:38:07;101419.38;;;9.62;71.11
37852;BME280;23691;52.486;4.650;2023-12-20T04:40:33;101403.63;;;9.59;70.81
37852;BME280;23691;52.486;4.650;2023-12-20T04:43:01;101409.25;;;9.56;70.81
37852;BME280;23691;52.486;4.650;2023-12-20T04:45:26;101411.94;;;9.56;71.12
37852;BME280;23691;52.486;4.650;2023-12-20T04:47:52;101407.41;;;9.57;71.02
37852;BME280;23691;52.486;4.650;2023-12-20T04:50:17;101411.94;;;9.56;71.34
37852;BME280;23691;52.486;4.650;2023-12-20T04:52:42;101407.16;;;9.60;71.38
37852;BME280;23691;52.486;4.650;2023-12-20T04:55:08;101409.53;;;9.63;71.11
37852;BME280;23691;52.486;4.650;2023-12-20T04:57:34;101421.19;;;9.62;71.37
37852;BME280;23691;52.486;4.650;2023-12-20T04:59:59;101424.13;;;9.68;71.20
37852;BME280;23691;52.486;4.650;2023-12-20T05:02:24;101437.22;;;9.62;71.35
37852;BME280;23691;52.486;4.650;2023-12-20T05:04:50;101441.59;;;9.63;71.15
37852;BME280;23691;52.486;4.650;2023-12-20T05:07:15;101430.75;;;9.64;70.88
37852;BME280;23691;52.486;4.650;2023-12-20T05:09:40;101423.72;;;9.63;70.66
37852;BME280;23691;52.486;4.650;2023-12-20T05:12:06;101426.94;;;9.67;70.86
37852;BME280;23691;52.486;4.650;2023-12-20T05:14:32;101426.09;;;9.66;70.70
37852;BME280;23691;52.486;4.650;2023-12-20T05:16:59;101429.59;;;9.67;70.96
37852;BME280;23691;52.486;4.650;2023-12-20T05:19:25;101418.91;;;9.67;70.97
37852;BME280;23691;52.486;4.650;2023-12-20T05:21:51;101416.53;;;9.74;71.21
37852;BME280;23691;52.486;4.650;2023-12-20T05:24:16;101412.00;;;9.74;71.22
37852;BME280;23691;52.486;4.650;2023-12-20T05:26:42;101407.66;;;9.73;71.33
37852;BME280;23691;52.486;4.650;2023-12-20T05:29:07;101401.31;;;9.74;71.54
37852;BME280;23691;52.486;4.650;2023-12-20T05:31:32;101387.81;;;9.76;71.44
37852;BME280;23691;52.486;4.650;2023-12-20T05:33:58;101384.03;;;9.78;70.93
37852;BME280;23691;52.486;4.650;2023-12-20T05:36:23;101400.88;;;9.79;71.12
37852;BME280;23691;52.486;4.650;2023-12-20T05:38:48;101394.00;;;9.76;71.03
37852;BME280;23691;52.486;4.650;2023-12-20T05:41:14;101386.16;;;9.75;71.17
37852;BME280;23691;52.486;4.650;2023-12-20T05:43:39;101399.66;;;9.73;71.22
37852;BME280;23691;52.486;4.650;2023-12-20T05:46:04;101386.56;;;9.80;71.12
37852;BME280;23691;52.486;4.650;2023-12-20T05:48:30;101392.75;;;9.80;71.04
37852;BME280;23691;52.486;4.650;2023-12-20T05:50:55;101389.81;;;9.74;71.36
37852;BME280;23691;52.486;4.650;2023-12-20T05:53:20;101409.34;;;9.74;71.60
37852;BME280;23691;52.486;4.650;2023-12-20T05:55:46;101400.50;;;9.74;71.56
37852;BME280;23691;52.486;4.650;2023-12-20T05:58:11;101396.84;;;9.75;71.52
37852;BME280;23691;52.486;4.650;2023-12-20T06:00:36;101399.53;;;9.75;71.52
37852;BME280;23691;52.486;4.650;2023-12-20T06:03:03;101398.53;;;9.76;71.37
37852;BME280;23691;52.486;4.650;2023-12-20T06:05:32;101392.19;;;9.77;71.39
37852;BME280;23691;52.486;4.650;2023-12-20T06:07:58;101393.19;;;9.76;71.60
37852;BME280;23691;52.486;4.650;2023-12-20T06:10:28;101392.03;;;9.78;71.78
37852;BME280;23691;52.486;4.650;2023-12-20T06:12:55;101404.41;;;9.79;71.92
37852;BME280;23691;52.486;4.650;2023-12-20T06:15:21;101389.38;;;9.78;72.05
37852;BME280;23691;52.486;4.650;2023-12-20T06:17:46;101392.44;;;9.83;71.78
37852;BME280;23691;52.486;4.650;2023-12-20T06:20:12;101382.06;;;9.80;71.99
37852;BME280;23691;52.486;4.650;2023-12-20T06:22:38;101386.66;;;9.88;71.69
37852;BME280;23691;52.486;4.650;2023-12-20T06:25:03;101388.63;;;9.86;71.43
37852;BME280;23691;52.486;4.650;2023-12-20T06:27:29;101390.34;;;9.87;71.53
37852;BME280;23691;52.486;4.650;2023-12-20T06:29:54;101382.31;;;9.87;71.38
37852;BME280;23691;52.486;4.650;2023-12-20T06:32:19;101387.50;;;9.88;71.59
37852;BME280;23691;52.486;4.650;2023-12-20T06:34:45;101380.47;;;9.87;71.62
37852;BME280;23691;52.486;4.650;2023-12-20T06:37:10;101384.81;;;9.88;71.86
37852;BME280;23691;52.486;4.650;2023-12-20T06:39:35;101381.44;;;9.86;71.90
37852;BME280;23691;52.486;4.650;2023-12-20T06:42:01;101385.97;;;9.86;71.90
37852;BME280;23691;52.486;4.650;2023-12-20T06:44:26;101386.78;;;9.86;71.86
37852;BME280;23691;52.486;4.650;2023-12-20T06:46:52;101386.53;;;9.89;71.54
37852;BME280;23691;52.486;4.650;2023-12-20T06:49:17;101387.19;;;9.92;71.25
37852;BME280;23691;52.486;4.650;2023-12-20T06:51:44;101373.00;;;9.91;71.24
37852;BME280;23691;52.486;4.650;2023-12-20T06:54:13;101377.50;;;9.91;71.09
37852;BME280;23691;52.486;4.650;2023-12-20T06:56:38;101369.63;;;9.89;71.48
37852;BME280;23691;52.486;4.650;2023-12-20T06:59:13;101363.44;;;9.88;71.30
37852;BME280;23691;52.486;4.650;2023-12-20T07:01:47;101363.31;;;9.90;71.29
37852;BME280;23691;52.486;4.650;2023-12-20T07:04:15;101367.81;;;9.89;71.29
37852;BME280;23691;52.486;4.650;2023-12-20T07:06:43;101366.94;;;9.89;71.19
37852;BME280;23691;52.486;4.650;2023-12-20T07:09:13;101354.44;;;9.89;71.33
37852;BME280;23691;52.486;4.650;2023-12-20T07:11:38;101358.25;;;9.87;71.32
37852;BME280;23691;52.486;4.650;2023-12-20T07:14:09;101354.03;;;9.84;71.50
37852;BME280;23691;52.486;4.650;2023-12-20T07:16:39;101356.56;;;9.86;71.62
37852;BME280;23691;52.486;4.650;2023-12-20T07:19:14;101363.88;;;9.84;71.59
37852;BME280;23691;52.486;4.650;2023-12-20T07:21:40;101358.25;;;9.87;71.80
37852;BME280;23691;52.486;4.650;2023-12-20T07:24:05;101350.06;;;9.88;71.66
37852;BME280;23691;52.486;4.650;2023-12-20T07:26:31;101342.50;;;9.84;71.85
37852;BME280;23691;52.486;4.650;2023-12-20T07:28:56;101359.22;;;9.86;71.79
37852;BME280;23691;52.486;4.650;2023-12-20T07:31:23;101377.81;;;9.87;72.02
37852;BME280;23691;52.486;4.650;2023-12-20T07:33:49;101361.88;;;9.96;71.44
37852;BME280;23691;52.486;4.650;2023-12-20T07:36:19;101368.22;;;9.95;71.35
37852;BME280;23691;52.486;4.650;2023-12-20T07:38:47;101363.84;;;9.94;71.41
37852;BME280;23691;52.486;4.650;2023-12-20T07:41:15;101369.34;;;9.92;71.49
37852;BME280;23691;52.486;4.650;2023-12-20T07:43:41;101400.97;;;9.97;71.55
37852;BME280;23691;52.486;4.650;2023-12-20T07:46:07;101378.03;;;9.94;71.69
37852;BME280;23691;52.486;4.650;2023-12-20T07:48:33;101400.00;;;9.98;71.77
37852;BME280;23691;52.486;4.650;2023-12-20T07:50:59;101385.78;;;9.97;71.91
37852;BME280;23691;52.486;4.650;2023-12-20T07:53:24;101387.03;;;10.03;71.75
37852;BME280;23691;52.486;4.650;2023-12-20T07:55:50;101401.94;;;10.05;71.79
37852;BME280;23691;52.486;4.650;2023-12-20T07:58:17;101387.72;;;10.05;71.95
37852;BME280;23691;52.486;4.650;2023-12-20T08:00:46;101378.25;;;10.10;71.91
37852;BME280;23691;52.486;4.650;2023-12-20T08:03:12;101390.78;;;10.10;71.85
37852;BME280;23691;52.486;4.650;2023-12-20T08:05:38;101396.97;;;10.10;72.00
37852;BME280;23691;52.486;4.650;2023-12-20T08:08:05;101401.19;;;10.13;71.77
37852;BME280;23691;52.486;4.650;2023-12-20T08:10:31;101393.31;;;10.12;71.89
37852;BME280;23691;52.486;4.650;2023-12-20T08:12:56;101393.84;;;10.15;71.78
37852;BME280;23691;52.486;4.650;2023-12-20T08:15:21;101391.88;;;10.17;71.53
37852;BME280;23691;52.486;4.650;2023-12-20T08:17:47;101395.25;;;10.19;71.64
37852;BME280;23691;52.486;4.650;2023-12-20T08:20:12;101380.34;;;10.17;71.64
37852;BME280;23691;52.486;4.650;2023-12-20T08:22:37;101389.22;;;10.17;71.81
37852;BME280;23691;52.486;4.650;2023-12-20T08:25:03;101396.22;;;10.18;71.99
37852;BME280;23691;52.486;4.650;2023-12-20T08:27:31;101382.84;;;10.18;72.00
37852;BME280;23691;52.486;4.650;2023-12-20T08:29:57;101388.91;;;10.20;72.23
37852;BME280;23691;52.486;4.650;2023-12-20T08:32:24;101387.91;;;10.21;72.12
37852;BME280;23691;52.486;4.650;2023-12-20T08:34:50;101411.69;;;10.24;72.18
37852;BME280;23691;52.486;4.650;2023-12-20T08:37:15;101394.66;;;10.25;72.14
37852;BME280;23691;52.486;4.650;2023-12-20T08:39:41;101395.25;;;10.29;71.97
37852;BME280;23691;52.486;4.650;2023-12-20T08:42:06;101387.88;;;10.31;71.88
37852;BME280;23691;52.486;4.650;2023-12-20T08:44:31;101396.06;;;10.29;71.88
37852;BME280;23691;52.486;4.650;2023-12-20T08:46:57;101397.59;;;10.32;71.75
37852;BME280;23691;52.486;4.650;2023-12-20T08:49:22;101388.31;;;10.36;71.66
37852;BME280;23691;52.486;4.650;2023-12-20T08:51:47;101397.00;;;10.38;71.82
37852;BME280;23691;52.486;4.650;2023-12-20T08:54:13;101388.44;;;10.35;71.86
37852;BME280;23691;52.486;4.650;2023-12-20T08:56:38;101386.47;;;10.37;71.58
37852;BME280;23691;52.486;4.650;2023-12-20T08:59:03;101385.63;;;10.36;71.38
37852;BME280;23691;52.486;4.650;2023-12-20T09:01:29;101388.97;;;10.38;71.30
37852;BME280;23691;52.486;4.650;2023-12-20T09:03:54;101378.28;;;10.38;71.47
37852;BME280;23691;52.486;4.650;2023-12-20T09:06:20;101373.47;;;10.42;71.18
37852;BME280;23691;52.486;4.650;2023-12-20T09:08:45;101378.00;;;10.41;71.21
37852;BME280;23691;52.486;4.650;2023-12-20T09:11:10;101373.63;;;10.40;70.97
37852;BME280;23691;52.486;4.650;2023-12-20T09:13:36;101373.78;;;10.39;71.05
37852;BME280;23691;52.486;4.650;2023-12-20T09:16:01;101386.84;;;10.42;71.08
37852;BME280;23691;52.486;4.650;2023-12-20T09:18:26;101385.00;;;10.42;71.27
37852;BME280;23691;52.486;4.650;2023-12-20T09:20:52;101377.28;;;10.39;71.31
37852;BME280;23691;52.486;4.650;2023-12-20T09:23:17;101387.69;;;10.42;71.44
37852;BME280;23691;52.486;4.650;2023-12-20T09:25:43;101391.91;;;10.45;71.36
37852;BME280;23691;52.486;4.650;2023-12-20T09:28:09;101380.50;;;10.43;71.36
37852;BME280;23691;52.486;4.650;2023-12-20T09:30:34;101389.09;;;10.46;71.30
37852;BME280;23691;52.486;4.650;2023-12-20T09:33:02;101390.75;;;10.47;71.31
37852;BME280;23691;52.486;4.650;2023-12-20T09:35:28;101372.72;;;10.49;71.24
37852;BME280;23691;52.486;4.650;2023-12-20T09:37:53;101401.84;;;10.52;71.02
37852;BME280;23691;52.486;4.650;2023-12-20T09:40:22;101387.00;;;10.58;70.91
37852;BME280;23691;52.486;4.650;2023-12-20T09:45:14;101402.03;;;10.69;70.53
37852;BME280;23691;52.486;4.650;2023-12-20T09:47:41;101397.06;;;10.74;70.60
37852;BME280;23691;52.486;4.650;2023-12-20T09:50:07;101400.94;;;10.80;70.34
37852;BME280;23691;52.486;4.650;2023-12-20T09:52:33;101400.81;;;10.81;70.16
37852;BME280;23691;52.486;4.650;2023-12-20T09:54:59;101407.00;;;10.82;70.29
37852;BME280;23691;52.486;4.650;2023-12-20T09:57:26;101405.63;;;10.95;70.14
37852;BME280;23691;52.486;4.650;2023-12-20T09:59:52;101411.06;;;11.04;69.75
37852;BME280;23691;52.486;4.650;2023-12-20T10:02:17;101409.22;;;11.04;69.56
37852;BME280;23691;52.486;4.650;2023-12-20T10:04:47;101406.53;;;11.04;69.57
37852;BME280;23691;52.486;4.650;2023-12-20T10:07:18;101405.38;;;11.07;69.56
37852;BME280;23691;52.486;4.650;2023-12-20T10:09:43;101406.31;;;11.15;69.45
37852;BME280;23691;52.486;4.650;2023-12-20T10:12:09;101404.16;;;11.19;69.28
37852;BME280;23691;52.486;4.650;2023-12-20T10:14:34;101407.00;;;11.17;69.27
37852;BME280;23691;52.486;4.650;2023-12-20T10:17:03;101416.25;;;11.23;69.28
37852;BME280;23691;52.486;4.650;2023-12-20T10:19:28;101416.25;;;11.23;69.33
37852;BME280;23691;52.486;4.650;2023-12-20T10:21:54;101399.16;;;11.24;69.06
37852;BME280;23691;52.486;4.650;2023-12-20T10:24:19;101412.94;;;11.29;69.15
37852;BME280;23691;52.486;4.650;2023-12-20T10:26:44;101404.25;;;11.27;68.94
37852;BME280;23691;52.486;4.650;2023-12-20T10:29:09;101408.22;;;11.23;68.94
37852;BME280;23691;52.486;4.650;2023-12-20T10:31:35;101408.22;;;11.23;69.05
37852;BME280;23691;52.486;4.650;2023-12-20T10:34:01;101398.47;;;11.22;69.26
37852;BME280;23691;52.486;4.650;2023-12-20T10:36:28;101403.69;;;11.24;69.42
37852;BME280;23691;52.486;4.650;2023-12-20T10:38:54;101384.34;;;11.30;69.44
37852;BME280;23691;52.486;4.650;2023-12-20T10:41:30;101391.72;;;11.36;69.31
37852;BME280;23691;52.486;4.650;2023-12-20T10:44:00;101391.78;;;11.44;69.26
37852;BME280;23691;52.486;4.650;2023-12-20T10:46:26;101364.03;;;11.53;69.01
37852;BME280;23691;52.486;4.650;2023-12-20T10:48:53;101368.78;;;11.59;68.59
37852;BME280;23691;52.486;4.650;2023-12-20T10:51:19;101368.31;;;11.64;68.29
37852;BME280;23691;52.486;4.650;2023-12-20T10:53:45;101363.47;;;11.68;67.87
37852;BME280;23691;52.486;4.650;2023-12-20T10:56:12;101370.81;;;11.66;67.96
37852;BME280;23691;52.486;4.650;2023-12-20T10:58:41;101378.84;;;11.66;67.84
37852;BME280;23691;52.486;4.650;2023-12-20T11:01:07;101376.50;;;11.63;67.83
37852;BME280;23691;52.486;4.650;2023-12-20T11:03:35;101372.00;;;11.71;67.57
37852;BME280;23691;52.486;4.650;2023-12-20T11:06:03;101370.13;;;11.64;67.52
37852;BME280;23691;52.486;4.650;2023-12-20T11:08:43;101369.63;;;11.60;67.75
37852;BME280;23691;52.486;4.650;2023-12-20T11:11:13;101371.47;;;11.59;67.63
37852;BME280;23691;52.486;4.650;2023-12-20T11:13:41;101376.84;;;11.59;67.63
37852;BME280;23691;52.486;4.650;2023-12-20T11:16:07;101362.41;;;11.60;67.82
37852;BME280;23691;52.486;4.650;2023-12-20T11:18:32;101364.63;;;11.65;67.70
37852;BME280;23691;52.486;4.650;2023-12-20T11:21:01;101362.63;;;11.67;67.62
37852;BME280;23691;52.486;4.650;2023-12-20T11:23:30;101351.09;;;11.75;67.64
37852;BME280;23691;52.486;4.650;2023-12-20T11:25:56;101347.13;;;11.79;67.60
37852;BME280;23691;52.486;4.650;2023-12-20T11:28:24;101339.22;;;11.77;67.70
37852;BME280;23691;52.486;4.650;2023-12-20T11:30:50;101343.03;;;11.67;67.94
37852;BME280;23691;52.486;4.650;2023-12-20T11:33:16;101344.13;;;11.56;68.23
37852;BME280;23691;52.486;4.650;2023-12-20T11:35:42;101350.50;;;11.55;68.38
37852;BME280;23691;52.486;4.650;2023-12-20T11:38:08;101339.34;;;11.68;68.01
37852;BME280;23691;52.486;4.650;2023-12-20T11:40:34;101322.44;;;11.67;68.01
37852;BME280;23691;52.486;4.650;2023-12-20T11:43:00;101330.81;;;11.72;68.16
37852;BME280;23691;52.486;4.650;2023-12-20T11:45:25;101329.53;;;11.76;67.81
37852;BME280;23691;52.486;4.650;2023-12-20T11:47:52;101332.03;;;11.78;67.81
37852;BME280;23691;52.486;4.650;2023-12-20T11:50:21;101323.97;;;11.78;67.53
37852;BME280;23691;52.486;4.650;2023-12-20T11:52:47;101333.97;;;11.68;67.79
37852;BME280;23691;52.486;4.650;2023-12-20T11:55:13;101327.09;;;11.65;68.03
37852;BME280;23691;52.486;4.650;2023-12-20T11:57:38;101334.13;;;11.66;68.03
37852;BME280;23691;52.486;4.650;2023-12-20T12:00:04;101338.03;;;11.72;67.97
37852;BME280;23691;52.486;4.650;2023-12-20T12:02:30;101340.25;;;11.76;67.86
37852;BME280;23691;52.486;4.650;2023-12-20T12:04:56;101321.81;;;11.81;67.69
37852;BME280;23691;52.486;4.650;2023-12-20T12:07:22;101326.31;;;11.81;67.83
37852;BME280;23691;52.486;4.650;2023-12-20T12:09:56;101321.81;;;11.81;67.62
37852;BME280;23691;52.486;4.650;2023-12-20T12:12:55;101317.13;;;11.83;67.69
37852;BME280;23691;52.486;4.650;2023-12-20T12:15:49;101312.94;;;11.81;67.72
37852;BME280;23691;52.486;4.650;2023-12-20T12:18:22;101305.06;;;11.79;67.54
37852;BME280;23691;52.486;4.650;2023-12-20T12:24:23;101300.88;;;11.77;67.29
37852;BME280;23691;52.486;4.650;2023-12-20T12:27:00;101290.72;;;11.54;68.07
37852;BME280;23691;52.486;4.650;2023-12-20T12:33:35;101293.00;;;11.49;67.72
37852;BME280;23691;52.486;4.650;2023-12-20T12:36:34;101294.50;;;11.44;67.83
37852;BME280;23691;52.486;4.650;2023-12-20T12:39:21;101285.41;;;11.36;68.05
37852;BME280;23691;52.486;4.650;2023-12-20T12:45:44;101286.56;;;11.34;68.33
37852;BME280;23691;52.486;4.650;2023-12-20T12:48:16;101281.19;;;11.34;68.34
37852;BME280;23691;52.486;4.650;2023-12-20T12:51:14;101281.06;;;11.35;68.44
37852;BME280;23691;52.486;4.650;2023-12-20T12:53:42;101278.19;;;11.37;68.35
37852;BME280;23691;52.486;4.650;2023-12-20T12:56:08;101270.66;;;11.32;68.22
37852;BME280;23691;52.486;4.650;2023-12-20T12:58:33;101273.72;;;11.37;68.02
37852;BME280;23691;52.486;4.650;2023-12-20T13:01:01;101266.88;;;11.43;68.12
37852;BME280;23691;52.486;4.650;2023-12-20T13:03:35;101258.78;;;11.35;68.32
37852;BME280;23691;52.486;4.650;2023-12-20T13:06:06;101258.09;;;11.33;68.04
37852;BME280;23691;52.486;4.650;2023-12-20T13:08:34;101265.31;;;11.32;68.19